Hovedside
METAR-TAF:

METAR-TAF

Lufthavner :

Findel lufthavn

Luxembourg, Luxembourg

breddegrad: 49-37N, lengdegrad: 006-13E, høyde over havet: 376 m

Gjeldene værobservasjon

Denne rapporten ble laget for 31 minutter siden, klokken 17:20 UTC
Vind 7 kt fra Nord, skiftende mellom Nordvest og Nord-nordøst
Temperatur 16°C
Luftfuktighet 59%
Trykk 1025 hPa
Sikt 10 km eller mer
Få skyer i en høyde av 3400 ft
Spredte skyer i en høyde av 4000 ft

METAR: ELLX 231720Z 36007KT 320V030 9999 FEW034 SCT040 16/08 Q1025 NOSIG

Tid: 19:51 (17:51 UTC)

Varsel

Denne rapporten ble laget for 51 minutter siden, klokken 17:00 UTC
Varsel gyldig fra 23. klokken 18 UTC til 24. klokken 24 UTC
Vind 8 kt fra Nord
Sikt 10 km eller mer
Spredte skyer i en høyde av 3000 ft
Brutte skyer i en høyde av 4000 ft
Midlertidig
fra 23. klokken 21 UTC til 24. klokken 06 UTC
Vind 2 kt fra skiftende retning

TAF: ELLX 231700Z 2318/2424 36008KT 9999 SCT030 BKN040 TEMPO 2321/2406 VRB02KT

Værobservasjoner og værvarsel for over 4000 flyplasser (METAR- og TAF-rapporter).

Tilgjengelige stasjoner er representert av de røde og gule prikkene på kartet.

Hold musepekeren over prikken for å se navnet på stasjonen.

Klikk så for å se værobservasjoner og -varsler.

For å forandre kartet kan du klikke på den grønne knappen med svart kryss for å zoome inn, på den grønne knappen med strek for å zoome ut, eller på de grønne pilene for å se tilstøtende kart.


METAR-TAF: